McBaine, Missouri
Current Conditions -  °F | °C
As of 11:54 PM on Tuesday 25 Nov 2014 (Local Time) from KCOU Reporting Station
Clear Clear  
Wind Chill: 21°   Ceiling: Unl
Heat Index: 28°   Visibility: 10mi
Dew Point: 17°   Wind: 7mph
Humidity: 63%   Direction: 140°SE
Pressure: 30.09"   Gusts: NA
Location:  38.895°N, 92.3958°W
Report Text: KCOU 260554Z AUTO 14006KT 10SM CLR M02/M08 A3009 RMK AO2 SLP195 T10221083 10017 21022 400441044 58016
Loading
Personal Weather Stations






























Interactive Weather Map New forecast layout! Learn more

10-Day Weather Forecast

Advertisements
Track Severe Weather on mobile